Hovedside
METAR-TAF:

METAR-TAF

Lufthavner :

Diori Hamani internasjonale lufthavn

Niamey, Niger

breddegrad: 13-29N, lengdegrad: 002-10E, høyde over havet: 223 m

Gjeldene værobservasjon

Denne rapporten ble laget for 1 time og 2 minutter siden, klokken 15:00 UTC
Vind 5 kt fra Nordøst, skiftende mellom Nord og Øst
Temperatur 39°C
Luftfuktighet 8%
Trykk 1008 hPa
Sikt 10 km eller mer
ingen skyer under 1500 m og ingen bygeskyer

METAR: DRRN 201500Z 04005KT 350V100 CAVOK 39/M01 Q1008 NOSIG

Tid: 17:02 (16:02 UTC)

Varsel

Denne rapporten ble laget for 5 timer og 2 minutter siden, klokken 11:00 UTC
Varsel gyldig fra 20. klokken 12 UTC til 21. klokken 18 UTC
Vind 10 kt fra Nord-nordøst
Sikt: 8000 m
Midlertidig
fra 20. klokken 12 UTC til 20. klokken 14 UTC
Vind 16 kt fra Øst
Midlertidig
fra 20. klokken 17 UTC til 20. klokken 20 UTC
Sikt: 4000 m
mye støv

TAF: DRRN 201100Z 2012/2118 02010KT 8000 NSC TEMPO 2012/2014 08016KT TEMPO 2017/2020 4000 DU

Værobservasjoner og værvarsel for over 4000 flyplasser (METAR- og TAF-rapporter).

Tilgjengelige stasjoner er representert av de røde og gule prikkene på kartet.

Hold musepekeren over prikken for å se navnet på stasjonen.

Klikk så for å se værobservasjoner og -varsler.

For å forandre kartet kan du klikke på den grønne knappen med svart kryss for å zoome inn, på den grønne knappen med strek for å zoome ut, eller på de grønne pilene for å se tilstøtende kart.


METAR-TAF: